Time;durP1;ratioP1;P1;durP2;ratioP2;P2;SDS_P1;SDS_P2;PMS_P1;PMS_P2;Temp;Humidity;BMP_temperature;BMP_pressure;BME280_temperature;BME280_humidity;BME280_pressure;Samples;Min_cycle;Max_cycle;Signal;HPM_P1;HPM_P2
2022/08/12 00:44:40;;;;;;;2.97;2.53;;;;;;;20.25;47.98;95801.50;4898742;29;20199;-82
2022/08/12 00:47:07;;;;;;;2.53;2.33;;;;;;;20.19;48.10;95803.22;4898974;29;20297;-82
2022/08/12 00:49:35;;;;;;;2.50;2.30;;;;;;;20.11;48.09;95800.97;4888930;29;20204;-82
2022/08/12 00:52:08;;;;;;;3.00;2.40;;;;;;;20.19;48.08;95799.81;4879761;29;20243;-82
2022/08/12 00:54:38;;;;;;;2.60;2.40;;;;;;;20.05;48.32;95799.25;4898853;29;20599;-82
2022/08/12 00:57:07;;;;;;;4.43;2.47;;;;;;;20.06;48.85;95798.25;4898247;29;20218;-82
2022/08/12 00:59:35;;;;;;;2.88;2.67;;;;;;;20.05;48.41;95796.66;4889225;29;20262;-82
2022/08/12 01:02:05;;;;;;;2.60;2.40;;;;;;;20.18;48.55;95787.78;4897689;29;20888;-82
2022/08/12 01:12:49;;;;;;;3.63;2.63;;;;;;;19.89;49.14;95792.94;4883355;29;20354;-82
2022/08/12 01:15:17;;;;;;;2.85;2.55;;;;;;;19.77;49.49;95786.13;4898543;29;20260;-82
2022/08/12 01:17:45;;;;;;;3.55;2.50;;;;;;;19.86;49.33;95782.94;4895564;29;20251;-82
2022/08/12 01:20:19;;;;;;;3.65;2.78;;;;;;;19.82;49.52;95779.19;4892358;29;20805;-82
2022/08/12 01:23:07;;;;;;;2.67;2.47;;;;;;;19.96;49.57;95784.97;4895751;29;20230;-82
2022/08/12 01:25:38;;;;;;;3.03;2.60;;;;;;;19.86;49.59;95784.75;4879563;29;20208;-82
2022/08/12 01:28:10;;;;;;;2.42;2.28;;;;;;;19.70;49.94;95788.06;4892790;29;20199;-82
2022/08/12 01:30:39;;;;;;;2.55;2.35;;;;;;;19.56;50.36;95787.50;4880713;29;20680;-82
2022/08/12 01:33:13;;;;;;;2.83;2.40;;;;;;;19.58;50.31;95788.06;4891709;29;20238;-82
2022/08/12 01:35:47;;;;;;;2.80;2.38;;;;;;;19.40;50.70;95780.31;4899422;29;20233;-82
2022/08/12 01:38:17;;;;;;;2.58;2.30;;;;;;;19.48;50.55;95787.81;4885992;29;20643;-82
2022/08/12 01:40:47;;;;;;;2.47;2.28;;;;;;;19.65;50.02;95788.75;4895565;29;20223;-82
2022/08/12 01:43:18;;;;;;;4.63;2.58;;;;;;;19.74;50.10;95789.19;4885142;29;20235;-82
2022/08/12 01:45:52;;;;;;;6.72;2.80;;;;;;;19.75;49.89;95790.78;4879448;29;20658;-82
2022/08/12 01:48:28;;;;;;;3.05;2.33;;;;;;;19.68;50.11;95785.66;4892212;29;20203;-82
2022/08/12 01:51:02;;;;;;;3.97;2.55;;;;;;;19.59;50.33;95785.25;4878959;29;20279;-82
2022/08/12 01:53:43;;;;;;;2.72;2.53;;;;;;;19.49;50.66;95779.75;4880437;29;20203;-82
2022/08/12 01:56:13;;;;;;;2.40;2.20;;;;;;;19.41;50.77;95782.72;4879778;29;20224;-82
2022/08/12 02:01:29;;;;;;;3.70;2.50;;;;;;;19.27;50.94;95769.06;4877802;29;20241;-82
2022/08/12 02:12:53;;;;;;;4.78;2.78;;;;;;;19.22;51.23;95768.97;4878996;29;20251;-82
2022/08/12 02:15:27;;;;;;;4.72;2.92;;;;;;;19.22;51.48;95768.97;4892170;29;20255;-82
2022/08/12 02:18:22;;;;;;;2.47;2.20;;;;;;;19.18;51.48;95770.44;4901314;29;20424;-82
2022/08/12 02:20:55;;;;;;;3.50;2.80;;;;;;;19.24;51.11;95769.50;4883103;29;20219;-82
2022/08/12 02:23:26;;;;;;;4.25;2.67;;;;;;;19.25;51.36;95770.31;4894548;29;20281;-82
2022/08/12 02:25:58;;;;;;;2.58;2.38;;;;;;;19.12;51.81;95760.09;4901542;29;20203;-82
2022/08/12 02:28:26;;;;;;;2.92;2.55;;;;;;;19.08;51.96;95759.72;4888899;29;20239;-82
2022/08/12 02:30:54;;;;;;;5.75;2.42;;;;;;;19.03;51.85;95751.81;4887612;29;20224;-82
2022/08/12 02:33:22;;;;;;;6.63;2.78;;;;;;;18.99;52.47;95761.09;4892858;29;20212;-82
2022/08/12 02:35:50;;;;;;;4.55;2.83;;;;;;;19.05;51.66;95752.34;4900989;29;20226;-82
2022/08/12 02:38:18;;;;;;;2.92;2.72;;;;;;;19.10;52.05;95749.06;4890937;29;20203;-82
2022/08/12 02:40:49;;;;;;;4.05;2.80;;;;;;;19.00;52.24;95754.84;4897469;29;20219;-82
2022/08/12 02:43:25;;;;;;;3.45;2.70;;;;;;;19.02;52.40;95747.59;4890375;29;20231;-82
2022/08/12 02:45:57;;;;;;;3.38;3.08;;;;;;;18.99;52.08;95750.66;4882045;29;20238;-82
2022/08/12 02:48:29;;;;;;;3.40;2.75;;;;;;;18.88;52.70;95756.63;4895741;29;20262;-82
2022/08/12 02:51:01;;;;;;;3.63;2.47;;;;;;;18.90;53.20;95752.78;4882244;29;20716;-82
2022/08/12 02:53:28;;;;;;;2.75;2.55;;;;;;;19.00;52.63;95743.63;4895329;29;20234;-82
2022/08/12 02:55:56;;;;;;;4.38;2.65;;;;;;;18.92;52.68;95752.56;4900330;29;20226;-82
2022/08/12 02:58:23;;;;;;;2.70;2.50;;;;;;;18.87;52.88;95747.22;4888802;29;20548;-82
2022/08/12 03:00:50;;;;;;;4.05;2.80;;;;;;;18.88;52.64;95754.81;4897798;29;20227;-82
2022/08/12 03:03:21;;;;;;;3.67;2.80;;;;;;;19.04;52.85;95756.00;4892023;29;20227;-82
2022/08/12 03:05:50;;;;;;;4.35;2.65;;;;;;;19.19;52.90;95758.16;4900865;29;20627;-82
2022/08/12 03:08:20;;;;;;;3.42;2.60;;;;;;;19.16;53.65;95753.41;4898794;29;20294;-82
2022/08/12 03:10:50;;;;;;;3.55;2.60;;;;;;;19.26;52.92;95751.00;4883385;29;20672;-82
2022/08/12 03:13:25;;;;;;;2.92;2.70;;;;;;;19.35;52.61;95744.44;4882477;29;20223;-82
2022/08/12 03:15:54;;;;;;;2.97;2.60;;;;;;;19.36;53.00;95747.84;4881482;29;20290;-82
2022/08/12 03:18:28;;;;;;;4.57;3.05;;;;;;;19.39;52.94;95742.97;4887190;29;20194;-82
2022/08/12 03:20:57;;;;;;;3.45;2.78;;;;;;;19.25;53.34;95749.41;4884706;29;20227;-82
2022/08/12 03:23:23;;;;;;;3.25;2.70;;;;;;;19.13;54.04;95746.81;4881075;29;20272;-82
2022/08/12 03:25:52;;;;;;;2.80;2.60;;;;;;;19.15;53.84;95749.19;4881245;29;20268;-82
2022/08/12 03:28:49;;;;;;;3.22;2.90;;;;;;;19.08;54.08;95749.28;4892561;29;20227;-82
2022/08/12 03:31:08;;;;;;;3.58;2.67;;;;;;;19.08;54.14;95757.13;4892161;29;20237;-82
2022/08/12 03:33:38;;;;;;;3.85;2.55;;;;;;;19.21;53.35;95756.94;4898374;29;20203;-82
2022/08/12 03:36:07;;;;;;;2.90;2.70;;;;;;;19.28;52.90;95754.97;4899514;29;20226;-82
2022/08/12 03:38:37;;;;;;;3.50;2.53;;;;;;;19.25;53.04;95754.63;4887534;29;20215;-82
2022/08/12 03:41:34;;;;;;;5.50;3.13;;;;;;;19.28;53.20;95751.56;4897692;29;20231;-82
2022/08/12 04:00:38;;;;;;;3.53;3.22;;;;;;;19.13;53.50;95751.22;4889819;29;20607;-82
2022/08/12 04:03:50;;;;;;;3.40;3.10;;;;;;;19.08;53.74;95748.50;4892972;29;20235;-82
2022/08/12 04:05:54;;;;;;;3.00;2.80;;;;;;;19.01;53.91;95745.22;4896495;29;20227;-82
2022/08/12 04:08:24;;;;;;;3.28;2.95;;;;;;;18.98;53.84;95749.84;4880184;29;20211;-82
2022/08/12 04:13:35;;;;;;;5.90;2.95;;;;;;;18.95;54.21;95749.50;4880373;29;20309;-82
2022/08/12 04:16:03;;;;;;;3.75;3.00;;;;;;;18.95;54.53;95741.69;4879430;29;20275;-82
2022/08/12 04:18:29;;;;;;;3.08;2.88;;;;;;;18.87;54.64;95748.00;4880206;29;20199;-82
2022/08/12 04:20:58;;;;;;;5.47;3.35;;;;;;;18.84;55.10;95745.06;4879055;29;20251;-81
2022/08/12 04:23:26;;;;;;;4.38;3.60;;;;;;;18.70;55.32;95749.66;4888263;29;20819;-82
2022/08/12 04:25:52;;;;;;;4.18;3.63;;;;;;;18.58;55.76;95744.41;4879350;29;20720;-82
2022/08/12 04:28:26;;;;;;;4.60;3.30;;;;;;;18.60;55.81;95752.84;4894833;29;20259;-82
2022/08/12 04:30:56;;;;;;;3.55;3.20;;;;;;;18.68;56.07;95745.69;4885988;29;20318;-82
2022/08/12 04:33:25;;;;;;;4.68;3.00;;;;;;;18.57;56.84;95750.63;4877358;29;20241;-82
2022/08/12 04:35:52;;;;;;;3.83;3.42;;;;;;;18.49;57.00;95761.38;4879357;29;20228;-82
2022/08/12 04:38:21;;;;;;;5.28;3.28;;;;;;;18.65;56.33;95759.19;4879484;29;20215;-82
2022/08/12 04:40:48;;;;;;;3.85;3.40;;;;;;;18.63;56.67;95762.81;4895928;29;20215;-82
2022/08/12 04:43:16;;;;;;;4.88;3.05;;;;;;;18.70;56.85;95764.53;4887256;29;20238;-82
2022/08/12 04:45:42;;;;;;;6.47;3.20;;;;;;;18.78;56.32;95759.00;4891950;29;20206;-82
2022/08/12 04:48:09;;;;;;;3.38;3.08;;;;;;;18.77;56.64;95763.41;4895093;29;20297;-82
2022/08/12 04:50:36;;;;;;;4.15;3.20;;;;;;;18.81;56.70;95759.34;4893145;29;20203;-82
2022/08/12 04:53:02;;;;;;;3.58;3.28;;;;;;;18.84;56.40;95764.13;4895166;29;20297;-82
2022/08/12 04:55:31;;;;;;;3.30;3.00;;;;;;;18.89;56.28;95763.44;4894922;29;20679;-82
2022/08/12 04:57:58;;;;;;;4.78;3.22;;;;;;;18.96;55.40;95761.53;4894617;29;20238;-82
2022/08/12 05:00:26;;;;;;;4.68;3.20;;;;;;;19.03;54.95;95766.66;4894805;29;20203;-82
2022/08/12 05:02:52;;;;;;;4.68;3.40;;;;;;;19.09;54.18;95765.75;4894614;29;20331;-82
2022/08/12 05:05:21;;;;;;;4.50;3.20;;;;;;;19.15;54.12;95768.25;4893934;29;20274;-82
2022/08/12 05:07:48;;;;;;;4.78;3.03;;;;;;;19.25;53.55;95772.91;4895696;29;20227;-82
2022/08/12 05:10:15;;;;;;;4.38;3.15;;;;;;;19.32;53.58;95765.78;4895506;29;20210;-82
2022/08/12 05:12:47;;;;;;;3.53;3.13;;;;;;;19.33;53.12;95770.78;4894240;29;20265;-82
2022/08/12 05:15:14;;;;;;;3.78;3.17;;;;;;;19.36;52.82;95772.13;4892967;29;20263;-82
2022/08/12 05:17:40;;;;;;;4.20;3.00;;;;;;;19.39;53.20;95766.47;4896034;29;20223;-81
2022/08/12 05:20:10;;;;;;;3.30;2.60;;;;;;;19.62;52.57;95770.94;4895457;29;20219;-82
2022/08/12 05:22:37;;;;;;;4.90;3.20;;;;;;;19.76;52.35;95785.34;4895594;29;20250;-82
2022/08/12 05:25:05;;;;;;;3.30;3.00;;;;;;;19.80;52.27;95775.22;4895930;29;20282;-82
2022/08/12 05:27:32;;;;;;;3.35;3.05;;;;;;;19.83;51.98;95779.97;4894606;29;20207;-82
2022/08/12 05:30:00;;;;;;;6.03;3.60;;;;;;;19.87;54.26;95779.28;4890411;29;20219;-82
2022/08/12 05:32:27;;;;;;;7.22;3.47;;;;;;;19.96;54.55;95777.13;4895127;29;20239;-81
2022/08/12 05:34:53;;;;;;;6.90;3.30;;;;;;;20.01;53.89;95783.25;4879773;29;20211;-82
2022/08/12 05:37:20;;;;;;;3.70;3.40;;;;;;;20.09;54.23;95783.91;4900322;29;20226;-82
2022/08/12 05:39:46;;;;;;;5.30;3.53;;;;;;;20.05;53.97;95782.78;4916631;29;20238;-82
2022/08/12 05:42:13;;;;;;;3.97;3.65;;;;;;;20.04;52.97;95782.00;4914291;29;20349;-82
2022/08/12 05:44:39;;;;;;;21.58;19.48;;;;;;;20.05;51.85;95785.41;4887594;29;20275;-82
2022/08/12 05:47:07;;;;;;;19.67;17.63;;;;;;;20.17;51.24;95786.97;4897198;29;20195;-82
2022/08/12 05:49:39;;;;;;;10.63;8.75;;;;;;;20.28;50.58;95780.13;4881682;29;20255;-82
2022/08/12 05:52:06;;;;;;;8.50;6.32;;;;;;;20.27;49.56;95789.78;4879550;29;20250;-82
2022/08/12 05:54:33;;;;;;;7.82;5.78;;;;;;;20.21;50.44;95788.09;4883439;29;20215;-82
2022/08/12 05:56:59;;;;;;;3.80;3.35;;;;;;;20.23;49.92;95778.19;4882999;29;20592;-82
2022/08/12 05:59:26;;;;;;;5.53;4.80;;;;;;;20.39;50.33;95789.00;4883237;29;20200;-82
2022/08/12 06:02:02;;;;;;;3.97;3.00;;;;;;;20.46;49.45;95779.97;4881565;29;20295;-82
2022/08/12 06:04:32;;;;;;;4.30;3.45;;;;;;;20.51;49.92;95785.31;4893704;29;20241;-82
2022/08/12 06:06:58;;;;;;;4.97;3.28;;;;;;;20.71;49.49;95774.41;4900893;29;20290;-82
2022/08/12 06:09:27;;;;;;;4.88;2.92;;;;;;;20.76;49.63;95782.34;4891875;29;20247;-82
2022/08/12 06:11:54;;;;;;;3.80;2.88;;;;;;;20.75;49.71;95786.00;4881639;29;20660;-82
2022/08/12 06:14:21;;;;;;;5.25;3.20;;;;;;;20.88;49.62;95780.47;4890929;29;20206;-82
2022/08/12 06:16:47;;;;;;;7.93;2.97;;;;;;;21.00;48.24;95781.19;4901196;29;20231;-82
2022/08/12 06:19:14;;;;;;;5.47;2.65;;;;;;;21.10;48.04;95777.16;4891685;29;20215;-82
2022/08/12 06:21:42;;;;;;;2.97;2.65;;;;;;;21.19;48.52;95780.94;4881176;29;20334;-82
2022/08/12 06:24:12;;;;;;;4.57;2.92;;;;;;;21.17;47.75;95777.78;4883641;29;20263;-82
2022/08/12 06:26:39;;;;;;;3.30;2.50;;;;;;;21.01;47.03;95784.59;4890067;29;20204;-82
2022/08/12 06:29:05;;;;;;;3.03;2.58;;;;;;;20.95;47.66;95775.88;4882442;29;20250;-82
2022/08/12 06:31:33;;;;;;;3.88;2.50;;;;;;;21.04;48.15;95779.69;4907562;29;20234;-82
2022/08/12 06:34:00;;;;;;;4.78;2.80;;;;;;;21.02;47.96;95780.94;4919647;29;20554;-82
2022/08/12 06:36:27;;;;;;;3.33;3.00;;;;;;;21.03;47.43;95775.47;4919159;29;20233;-82
2022/08/12 06:38:54;;;;;;;4.57;3.10;;;;;;;20.98;47.34;95775.38;4919476;29;20198;-82
2022/08/12 06:44:07;;;;;;;4.70;2.80;;;;;;;20.90;47.40;95770.56;4899205;29;20247;-82
2022/08/12 06:46:35;;;;;;;5.07;3.30;;;;;;;20.95;47.98;95780.31;4899603;29;20213;-82
2022/08/12 06:49:01;;;;;;;2.97;2.63;;;;;;;21.08;47.12;95774.78;4912131;29;20202;-82
2022/08/12 06:51:30;;;;;;;4.60;2.95;;;;;;;21.01;47.24;95781.97;4916952;29;20233;-81
2022/08/12 06:53:59;;;;;;;5.25;3.30;;;;;;;20.93;47.68;95780.56;4899727;29;20218;-82
2022/08/12 06:56:26;;;;;;;3.45;3.00;;;;;;;20.95;47.41;95778.50;4899289;29;20210;-82
2022/08/12 06:58:53;;;;;;;3.80;3.50;;;;;;;21.09;48.21;95775.56;4900103;29;20211;-82
2022/08/12 07:01:19;;;;;;;2.90;2.70;;;;;;;21.15;47.75;95780.66;4899218;29;20235;-82
2022/08/12 07:03:46;;;;;;;2.80;2.40;;;;;;;21.22;48.14;95775.28;4898605;29;20627;-82
2022/08/12 07:06:13;;;;;;;6.22;2.95;;;;;;;21.31;47.70;95772.03;4899688;29;20237;-83
2022/08/12 07:08:41;;;;;;;5.30;2.80;;;;;;;21.42;47.84;95775.59;4899912;29;20207;-82
2022/08/12 07:11:10;;;;;;;5.22;2.70;;;;;;;21.60;47.49;95777.16;4898233;29;20230;-82
2022/08/12 07:13:42;;;;;;;2.83;2.50;;;;;;;21.81;46.99;95784.25;4899584;29;20210;-82
2022/08/12 07:16:10;;;;;;;6.20;2.38;;;;;;;21.88;45.81;95776.25;4899517;29;20199;-83
2022/08/12 07:18:37;;;;;;;3.72;2.78;;;;;;;21.94;45.88;95778.66;4902024;29;20233;-82
2022/08/12 07:21:06;;;;;;;3.63;3.22;;;;;;;22.03;46.18;95773.84;4917140;29;20226;-82
2022/08/12 07:23:35;;;;;;;7.78;6.57;;;;;;;22.26;45.08;95775.44;4917484;29;20210;-82
2022/08/12 07:26:02;;;;;;;6.15;4.65;;;;;;;22.48;44.61;95773.59;4885014;29;20275;-83
2022/08/12 07:28:33;;;;;;;9.48;2.80;;;;;;;22.48;44.26;95778.03;4880407;29;20208;-82
2022/08/12 07:31:03;;;;;;;5.93;5.32;;;;;;;22.48;43.90;95775.41;4879344;29;20374;-83
2022/08/12 07:33:30;;;;;;;3.13;2.75;;;;;;;22.35;43.75;95777.34;4893585;29;20210;-82
2022/08/12 07:35:58;;;;;;;3.63;2.60;;;;;;;22.42;44.04;95782.44;4888293;29;20195;-83
2022/08/12 07:38:29;;;;;;;6.15;3.00;;;;;;;22.59;45.17;95787.59;4886492;29;20224;-83
2022/08/12 07:41:00;;;;;;;3.85;2.63;;;;;;;22.82;45.07;95787.34;4883841;29;20241;-83
2022/08/12 07:43:28;;;;;;;3.67;2.83;;;;;;;22.91;44.38;95779.78;4882397;29;20204;-82
2022/08/12 07:45:57;;;;;;;5.40;2.80;;;;;;;22.94;43.65;95784.53;4884192;29;20226;-82
2022/08/12 07:48:24;;;;;;;4.45;2.67;;;;;;;23.09;43.81;95779.44;4898631;29;20209;-83
2022/08/12 07:50:52;;;;;;;4.50;2.83;;;;;;;23.22;43.99;95783.47;4882346;29;20450;-82
2022/08/12 07:53:18;;;;;;;3.83;2.67;;;;;;;23.35;43.52;95788.31;4901552;29;20227;-82
2022/08/12 07:55:45;;;;;;;6.80;2.83;;;;;;;23.52;43.47;95783.72;4897514;29;20277;-82
2022/08/12 07:58:11;;;;;;;5.15;2.63;;;;;;;23.68;43.46;95792.50;4881720;29;20284;-83
2022/08/12 08:00:39;;;;;;;6.25;2.80;;;;;;;23.84;43.09;95788.16;4877718;29;20207;-81
2022/08/12 08:03:08;;;;;;;3.78;2.90;;;;;;;23.73;43.20;95788.06;4892681;29;20667;-82
2022/08/12 08:05:37;;;;;;;8.35;4.55;;;;;;;23.87;42.70;95777.88;4895043;29;20263;-81
2022/08/12 08:08:13;;;;;;;5.25;2.50;;;;;;;24.06;42.67;95783.50;4897267;29;20214;-81
2022/08/12 08:10:40;;;;;;;3.85;2.63;;;;;;;24.11;42.35;95783.53;4885714;29;20924;-81
2022/08/12 08:13:07;;;;;;;3.13;2.30;;;;;;;24.04;41.48;95785.63;4890960;29;20282;-82
2022/08/12 08:15:34;;;;;;;4.35;2.60;;;;;;;23.98;42.10;95784.00;4878479;29;20238;-81
2022/08/12 08:18:03;;;;;;;4.80;2.30;;;;;;;24.01;41.07;95786.91;4878861;29;20227;-81
2022/08/12 08:20:34;;;;;;;10.13;9.13;;;;;;;24.05;41.84;95779.31;4893246;29;20626;-81
2022/08/12 08:23:06;;;;;;;6.03;4.93;;;;;;;24.28;41.62;95791.25;4877295;29;20235;-81
2022/08/12 08:25:37;;;;;;;4.57;4.05;;;;;;;24.52;41.37;95779.22;4886947;29;20635;-82
2022/08/12 08:28:06;;;;;;;6.63;3.95;;;;;;;24.52;41.05;95784.50;4890827;29;20201;-81
2022/08/12 08:30:34;;;;;;;4.65;2.22;;;;;;;24.63;40.95;95780.06;4876700;29;20236;-81
2022/08/12 08:33:01;;;;;;;4.32;2.42;;;;;;;24.88;40.20;95784.56;4894179;29;20294;-81
2022/08/12 08:35:27;;;;;;;2.80;2.58;;;;;;;24.83;39.42;95777.44;4895943;29;20868;-81
2022/08/12 08:38:06;;;;;;;7.38;2.95;;;;;;;24.99;40.17;95778.31;4883093;29;20279;-81
2022/08/12 08:43:20;;;;;;;2.95;2.40;;;;;;;25.06;38.34;95776.97;4881547;29;20246;-82
2022/08/12 08:45:47;;;;;;;3.83;2.15;;;;;;;25.16;39.49;95784.13;4882022;29;20206;-82
2022/08/12 08:48:13;;;;;;;3.67;2.30;;;;;;;25.20;38.94;95787.81;4886059;29;20286;-82
2022/08/12 08:50:40;;;;;;;4.07;2.22;;;;;;;25.05;38.95;95783.31;4887070;29;20832;-82
2022/08/12 08:53:08;;;;;;;3.08;2.20;;;;;;;25.05;39.74;95782.50;4894623;29;20226;-81
2022/08/12 08:55:34;;;;;;;3.55;2.47;;;;;;;25.24;38.80;95791.47;4891259;29;20714;-81
2022/08/12 08:58:02;;;;;;;4.28;3.97;;;;;;;25.22;38.81;95787.53;4883985;29;20309;-81
2022/08/12 09:00:30;;;;;;;4.95;2.22;;;;;;;25.20;38.75;95787.03;4895051;29;20293;-81
2022/08/12 09:02:57;;;;;;;4.65;3.28;;;;;;;25.27;38.27;95788.31;4894248;29;20226;-81
2022/08/12 09:05:23;;;;;;;4.30;2.75;;;;;;;25.26;38.11;95778.03;4888885;29;20615;-81
2022/08/12 09:07:50;;;;;;;5.95;3.38;;;;;;;25.69;39.01;95779.34;4888888;29;20200;-81
2022/08/12 09:10:19;;;;;;;5.25;3.80;;;;;;;25.91;38.06;95781.69;4877565;29;20679;-81
2022/08/12 09:15:30;;;;;;;4.15;2.72;;;;;;;26.40;37.49;95781.78;4893639;29;20289;-81
2022/08/12 09:17:58;;;;;;;8.77;3.10;;;;;;;26.44;36.56;95778.34;4901602;29;20237;-80
2022/08/12 09:20:26;;;;;;;8.60;7.82;;;;;;;26.44;36.49;95780.97;4889248;29;20215;-80
2022/08/12 09:22:53;;;;;;;4.97;4.28;;;;;;;26.30;36.81;95790.56;4884272;29;20580;-82
2022/08/12 09:25:21;;;;;;;3.30;2.65;;;;;;;26.33;36.29;95782.09;4877410;29;20608;-82
2022/08/12 09:27:50;;;;;;;2.72;2.45;;;;;;;26.51;36.47;95785.19;4879329;29;20668;-81
2022/08/12 09:30:16;;;;;;;4.57;2.50;;;;;;;26.50;35.31;95779.09;4886105;29;20297;-82
2022/08/12 09:32:49;;;;;;;3.42;2.38;;;;;;;26.37;36.06;95780.47;4896300;29;20238;-81
2022/08/12 09:35:19;;;;;;;2.78;2.17;;;;;;;26.42;35.82;95791.00;4899652;29;20242;-81
2022/08/12 09:37:46;;;;;;;3.35;2.40;;;;;;;26.48;36.11;95784.66;4891694;29;20223;-82
2022/08/12 09:40:13;;;;;;;3.50;2.20;;;;;;;26.10;36.09;95775.56;4894298;29;20209;-81
2022/08/12 09:45:26;;;;;;;2.55;2.10;;;;;;;25.69;36.94;95774.88;4879635;29;20239;-81
2022/08/12 09:47:53;;;;;;;6.00;2.17;;;;;;;25.77;36.75;95770.91;4885197;29;20227;-80
2022/08/12 09:50:21;;;;;;;3.03;2.13;;;;;;;25.68;37.24;95770.66;4897809;29;20715;-81
2022/08/12 09:52:51;;;;;;;4.22;2.25;;;;;;;25.40;37.74;95776.47;4880841;29;20282;-81
2022/08/12 09:55:18;;;;;;;2.38;1.92;;;;;;;25.12;37.83;95777.78;4880379;29;20295;-81
2022/08/12 09:57:46;;;;;;;5.55;2.38;;;;;;;24.98;38.75;95777.53;4879605;29;20291;-81
2022/08/12 10:00:13;;;;;;;9.10;8.02;;;;;;;24.73;38.75;95787.97;4894541;29;20262;-81
2022/08/12 10:02:58;;;;;;;3.97;3.13;;;;;;;24.76;38.78;95777.72;4887812;29;20389;-80
2022/08/12 10:05:24;;;;;;;4.95;3.00;;;;;;;24.89;39.47;95773.78;4880633;29;20267;-81
2022/08/12 10:07:50;;;;;;;6.15;3.55;;;;;;;24.90;39.83;95775.34;4889707;29;20259;-81
2022/08/12 10:10:18;;;;;;;4.65;2.97;;;;;;;25.19;38.67;95773.06;4898121;29;20206;-81
2022/08/12 10:15:30;;;;;;;3.88;2.13;;;;;;;25.19;38.70;95769.63;4883158;29;20250;-81
2022/08/12 10:17:57;;;;;;;2.45;2.10;;;;;;;25.18;38.58;95771.47;4898169;29;20242;-80
2022/08/12 10:20:23;;;;;;;2.95;1.90;;;;;;;24.78;38.61;95772.19;4896324;29;20266;-80
2022/08/12 10:22:56;;;;;;;4.75;2.55;;;;;;;24.61;38.85;95767.16;4883769;29;20231;-81
2022/08/12 10:30:49;;;;;;;2.42;2.13;;;;;;;24.63;39.82;95772.16;4873280;29;20218;-82
2022/08/12 10:33:15;;;;;;;4.88;2.72;;;;;;;24.52;39.23;95773.97;4896968;29;20240;-82
2022/08/12 10:35:43;;;;;;;4.13;3.35;;;;;;;24.56;40.21;95766.34;4896732;29;20203;-82
2022/08/12 10:38:10;;;;;;;3.63;2.80;;;;;;;24.62;40.04;95770.59;4897648;29;20301;-82
2022/08/12 10:43:39;;;;;;;3.38;2.13;;;;;;;24.41;39.48;95759.22;4890502;29;20208;-82
2022/08/12 10:43:41;;;;;;;3.40;1.85;;;;;;;24.60;38.36;95770.06;4881006;29;20684;-82
2022/08/12 10:46:07;;;;;;;2.80;1.92;;;;;;;24.94;38.06;95760.66;4898117;29;20230;-82
2022/08/12 10:48:34;;;;;;;3.47;2.15;;;;;;;25.42;37.32;95763.78;4898369;29;20196;-82
2022/08/12 10:51:02;;;;;;;3.13;2.25;;;;;;;25.77;37.26;95758.50;4896760;29;20231;-81
2022/08/12 10:53:29;;;;;;;3.63;1.95;;;;;;;25.85;36.84;95751.88;4890742;29;20245;-82
2022/08/12 10:55:55;;;;;;;2.20;1.98;;;;;;;26.14;36.16;95747.56;4893685;29;20207;-82
2022/08/12 10:58:22;;;;;;;1.95;1.83;;;;;;;26.05;35.99;95754.44;4898340;29;20235;-82
2022/08/12 11:00:49;;;;;;;4.57;1.88;;;;;;;26.07;35.25;95744.41;4884750;29;20227;-82
2022/08/12 11:03:16;;;;;;;2.60;2.00;;;;;;;26.07;35.53;95751.53;4883187;29;20229;-82
2022/08/12 11:05:43;;;;;;;3.58;1.90;;;;;;;25.90;35.39;95738.66;4886018;29;20746;-82
2022/08/12 11:08:11;;;;;;;3.38;1.90;;;;;;;25.68;35.92;95739.00;4879577;29;20223;-82
2022/08/12 11:10:38;;;;;;;2.00;1.67;;;;;;;25.85;35.54;95732.63;4884025;29;20199;-82
2022/08/12 11:13:04;;;;;;;1.83;1.70;;;;;;;26.23;35.01;95733.78;4897628;29;20234;-82
2022/08/12 11:15:32;;;;;;;2.30;1.70;;;;;;;26.51;34.81;95735.00;4898504;29;20632;-82
2022/08/12 11:18:00;;;;;;;3.90;1.90;;;;;;;26.65;34.70;95738.59;4898184;29;20223;-82
2022/08/12 11:20:27;;;;;;;2.78;1.70;;;;;;;26.86;34.18;95718.91;4899119;29;20239;-82
2022/08/12 11:22:57;;;;;;;2.70;2.50;;;;;;;27.02;34.14;95724.88;4898285;29;20816;-82
2022/08/12 11:25:23;;;;;;;1.73;1.63;;;;;;;26.99;33.88;95715.66;4886697;29;20203;-82
2022/08/12 11:27:49;;;;;;;3.65;1.55;;;;;;;26.68;32.87;95724.84;4894991;29;20206;-82
2022/08/12 11:30:16;;;;;;;2.35;1.60;;;;;;;26.56;33.76;95719.09;4880361;29;20758;-82
2022/08/12 11:32:44;;;;;;;1.83;1.73;;;;;;;26.44;33.89;95722.88;4878491;29;20311;-82
2022/08/12 11:35:12;;;;;;;3.03;1.65;;;;;;;26.68;32.93;95717.72;4893603;29;20203;-82
2022/08/12 11:37:39;;;;;;;2.03;1.40;;;;;;;26.62;33.38;95713.53;4897126;29;20203;-83
2022/08/12 11:40:07;;;;;;;4.13;3.72;;;;;;;26.48;34.11;95721.28;4896970;29;20815;-82
2022/08/12 11:42:34;;;;;;;7.05;6.35;;;;;;;26.79;33.27;95710.50;4900777;29;20294;-82
2022/08/12 11:45:00;;;;;;;4.57;2.65;;;;;;;27.02;32.42;95715.09;4896867;29;20801;-82
2022/08/12 11:47:27;;;;;;;3.20;1.60;;;;;;;26.56;31.89;95705.88;4886085;29;20696;-82
2022/08/12 11:49:53;;;;;;;2.22;1.40;;;;;;;26.63;32.86;95709.81;4878242;29;20561;-82
2022/08/12 11:52:21;;;;;;;3.97;1.70;;;;;;;26.90;33.10;95701.44;4893498;29;20238;-82
2022/08/12 11:54:47;;;;;;;2.55;1.40;;;;;;;27.16;31.54;95700.16;4878591;29;20728;-82
2022/08/12 11:57:14;;;;;;;5.00;1.55;;;;;;;27.14;31.21;95697.00;4894655;29;20210;-82
2022/08/12 11:59:40;;;;;;;3.22;1.48;;;;;;;27.10;31.18;95696.00;4896225;29;20233;-82
2022/08/12 12:02:07;;;;;;;3.20;1.40;;;;;;;27.04;31.24;95691.03;4897154;29;20358;-83
2022/08/12 12:04:33;;;;;;;2.47;1.50;;;;;;;26.88;32.03;95690.34;4888486;29;20654;-82
2022/08/12 12:07:00;;;;;;;2.03;1.48;;;;;;;27.13;32.07;95695.44;4896043;29;20194;-83
2022/08/12 12:09:28;;;;;;;1.65;1.27;;;;;;;27.09;29.48;95688.34;4898273;29;20238;-82
2022/08/12 12:11:54;;;;;;;1.67;1.25;;;;;;;26.99;30.59;95688.44;4884269;29;20266;-82
2022/08/12 12:14:21;;;;;;;2.15;1.65;;;;;;;27.09;31.48;95694.44;4891508;29;20199;-82
2022/08/12 12:16:47;;;;;;;2.97;1.40;;;;;;;27.34;32.28;95684.66;4879581;29;20203;-82
2022/08/12 12:19:13;;;;;;;1.38;1.27;;;;;;;27.58;31.55;95685.50;4885599;29;20218;-83
2022/08/12 12:21:40;;;;;;;3.33;1.42;;;;;;;27.62;30.15;95686.53;4896590;29;20238;-83
2022/08/12 12:24:06;;;;;;;3.08;1.50;;;;;;;27.49;30.42;95679.25;4895993;29;20210;-82
2022/08/12 12:26:34;;;;;;;1.40;1.30;;;;;;;27.31;30.24;95674.69;4897930;29;20282;-82
2022/08/12 12:29:00;;;;;;;1.48;1.38;;;;;;;27.55;30.90;95674.66;4899142;29;20987;-82
2022/08/12 12:31:27;;;;;;;10.07;9.18;;;;;;;27.63;30.60;95671.44;4879877;29;20231;-82
2022/08/12 12:33:53;;;;;;;2.35;1.60;;;;;;;27.69;30.15;95667.69;4879743;29;20203;-82
2022/08/12 12:36:20;;;;;;;4.13;1.67;;;;;;;27.81;31.41;95663.56;4896154;29;20258;-83
2022/08/12 12:38:46;;;;;;;1.35;1.20;;;;;;;27.84;29.77;95663.00;4896322;29;20814;-82
2022/08/12 12:41:13;;;;;;;2.78;1.35;;;;;;;27.95;30.50;95655.69;4878682;29;20246;-82
2022/08/12 12:43:41;;;;;;;2.67;1.40;;;;;;;28.07;30.44;95661.38;4879230;29;20212;-82
2022/08/12 12:46:07;;;;;;;1.48;1.38;;;;;;;27.97;31.18;95660.72;4885835;29;20643;-82
2022/08/12 12:48:33;;;;;;;2.38;1.40;;;;;;;27.98;30.16;95652.47;4898249;29;20206;-82
2022/08/12 12:53:49;;;;;;;2.75;1.20;;;;;;;27.86;30.73;95657.41;4896974;29;20217;-82
2022/08/12 12:56:19;;;;;;;2.05;1.30;;;;;;;28.08;31.16;95655.00;4899023;29;20294;-82
2022/08/12 12:58:50;;;;;;;2.25;1.30;;;;;;;28.10;30.24;95655.50;4889277;29;20234;-82
2022/08/12 13:01:18;;;;;;;2.78;1.58;;;;;;;28.28;30.14;95646.03;4878326;29;20733;-82
2022/08/12 13:03:44;;;;;;;4.10;1.52;;;;;;;28.36;30.11;95648.03;4885195;29;20206;-82
2022/08/12 13:06:11;;;;;;;1.30;1.20;;;;;;;28.15;29.48;95644.06;4898174;29;20893;-82
2022/08/12 13:08:37;;;;;;;1.27;1.13;;;;;;;27.99;29.61;95645.34;4898065;29;20259;-82
2022/08/12 13:11:06;;;;;;;1.77;1.40;;;;;;;28.26;30.19;95647.38;4896660;29;20271;-82
2022/08/12 13:13:35;;;;;;;2.67;1.40;;;;;;;28.36;29.67;95642.72;4897719;29;20300;-82
2022/08/12 13:16:03;;;;;;;1.30;1.20;;;;;;;28.43;30.06;95637.84;4898676;29;20253;-82
2022/08/12 13:18:35;;;;;;;1.88;1.25;;;;;;;28.46;29.44;95642.59;4897111;29;22237;-82
2022/08/12 13:21:02;;;;;;;2.03;1.30;;;;;;;28.45;29.84;95638.34;4896329;29;20714;-82
2022/08/12 13:23:28;;;;;;;4.10;1.30;;;;;;;28.10;30.14;95636.16;4897121;29;20211;-82
2022/08/12 13:25:56;;;;;;;1.50;1.35;;;;;;;28.07;30.07;95634.91;4880661;29;20211;-82